createdAt,value
2022-12-15T08:01:49.992Z,31.53
2022-12-15T08:04:27.853Z,36.07
2022-12-15T08:07:04.928Z,35.53
2022-12-15T08:09:42.548Z,35.20
2022-12-15T08:12:19.836Z,33.93
2022-12-15T08:14:57.205Z,33.80
2022-12-15T08:17:38.635Z,33.50
2022-12-15T08:20:16.503Z,33.87
2022-12-15T08:22:55.066Z,27.70
2022-12-15T08:25:33.386Z,34.30
2022-12-15T08:28:10.415Z,36.03
2022-12-15T08:30:47.899Z,34.40
2022-12-15T08:33:28.091Z,28.00
2022-12-15T08:36:08.397Z,35.47
2022-12-15T08:38:47.487Z,32.80
2022-12-15T08:41:27.565Z,32.33
2022-12-15T08:44:05.326Z,30.97
2022-12-15T08:46:42.895Z,33.60
2022-12-15T08:49:23.098Z,32.30
2022-12-15T08:52:01.211Z,33.17
2022-12-15T08:54:38.506Z,32.60
2022-12-15T08:57:15.844Z,31.30
2022-12-15T08:59:54.015Z,33.20
2022-12-15T09:02:31.633Z,29.90
2022-12-15T09:05:13.313Z,30.17
2022-12-15T09:07:50.683Z,31.77
2022-12-15T09:10:28.658Z,29.37
2022-12-15T09:13:08.977Z,31.60
2022-12-15T09:16:15.305Z,28.80
2022-12-15T09:18:49.288Z,26.37
2022-12-15T09:21:34.518Z,25.27
2022-12-15T09:24:25.849Z,26.67
2022-12-15T09:27:09.303Z,25.87
2022-12-15T09:29:49.003Z,25.63
2022-12-15T09:32:27.860Z,24.90
2022-12-15T09:35:07.464Z,25.03
2022-12-15T09:37:51.740Z,24.10
2022-12-15T09:40:31.166Z,25.20
2022-12-15T09:43:46.753Z,24.10
2022-12-15T09:46:24.022Z,22.27
2022-12-15T09:49:06.877Z,23.40
2022-12-15T09:51:52.467Z,22.80
2022-12-15T09:54:38.183Z,23.57
2022-12-15T09:57:45.284Z,23.53
2022-12-15T10:01:17.567Z,22.13
2022-12-15T10:05:13.772Z,19.93
2022-12-15T10:12:23.166Z,19.73
2022-12-15T10:15:58.665Z,19.67
2022-12-15T10:19:43.396Z,22.63
2022-12-15T10:22:58.183Z,21.20
2022-12-15T10:30:24.543Z,20.40
2022-12-15T10:33:28.803Z,18.87
2022-12-15T10:36:09.182Z,18.70
2022-12-15T10:38:50.866Z,17.60
2022-12-15T10:41:29.080Z,18.70
2022-12-15T10:44:32.067Z,19.00
2022-12-15T10:47:49.506Z,19.15
2022-12-15T10:54:07.648Z,20.73
2022-12-15T10:56:58.169Z,18.07
2022-12-15T10:59:53.827Z,19.93
2022-12-15T11:03:34.976Z,19.40
2022-12-15T11:06:33.283Z,17.63
2022-12-15T11:09:42.232Z,16.00
2022-12-15T11:12:58.743Z,19.60
2022-12-15T11:16:09.730Z,17.37
2022-12-15T11:19:20.931Z,17.57
2022-12-15T11:22:30.439Z,19.90
2022-12-15T11:25:49.188Z,19.20
2022-12-15T11:29:11.480Z,19.10
2022-12-15T11:32:21.703Z,18.17
2022-12-15T11:35:31.248Z,18.33
2022-12-15T11:38:32.752Z,17.30
2022-12-15T11:41:47.159Z,18.27
2022-12-15T11:44:55.332Z,20.17
2022-12-15T11:47:57.028Z,22.58
2022-12-15T11:51:03.324Z,20.03
2022-12-15T11:58:06.314Z,21.80
2022-12-15T12:01:12.122Z,21.48
2022-12-15T12:04:25.283Z,20.57
2022-12-15T12:07:58.586Z,22.07
2022-12-15T12:15:00.883Z,22.50
2022-12-15T12:21:32.709Z,22.80
2022-12-15T12:24:43.262Z,22.27
2022-12-15T12:27:48.768Z,21.23
2022-12-15T12:31:18.774Z,30.23
2022-12-15T12:38:38.004Z,22.60
